Time;durP1;ratioP1;P1;durP2;ratioP2;P2;SDS_P1;SDS_P2;PMS_P1;PMS_P2;Temp;Humidity;BMP_temperature;BMP_pressure;BME280_temperature;BME280_humidity;BME280_pressure;Samples;Min_cycle;Max_cycle;Signal;HPM_P1;HPM_P2
2021/08/15 00:00:24;;;;;;;;;;;13.10;99.90;;;;;;5074187;28;19908;-66
2021/08/15 00:02:51;;;;;;;;;;;13.20;99.90;;;;;;5073331;28;19913;-66
2021/08/15 00:05:17;;;;;;;;;;;13.30;99.80;;;;;;5073783;28;19920;-67
2021/08/15 00:07:44;;;;;;;;;;;13.40;99.80;;;;;;5073350;28;19909;-67
2021/08/15 00:10:11;;;;;;;;;;;13.50;99.20;;;;;;5073595;28;19973;-65
2021/08/15 00:12:39;;;;;;;;;;;13.60;98.40;;;;;;5072728;28;20012;-66
2021/08/15 00:15:07;;;;;;;;;;;13.60;98.10;;;;;;5073323;28;20011;-65
2021/08/15 00:17:34;;;;;;;;;;;13.80;97.70;;;;;;5073190;28;19909;-67
2021/08/15 00:20:01;;;;;;;;;;;13.90;97.40;;;;;;5073240;28;19908;-67
2021/08/15 00:22:27;;;;;;;;;;;14.00;96.70;;;;;;5073231;28;19916;-67
2021/08/15 00:24:54;;;;;;;;;;;14.10;96.10;;;;;;5073061;28;19909;-67
2021/08/15 00:27:21;;;;;;;;;;;14.20;95.50;;;;;;5073050;28;19909;-68
2021/08/15 00:29:47;;;;;;;;;;;14.30;94.80;;;;;;5072929;28;20299;-65
2021/08/15 00:32:14;;;;;;;;;;;14.40;94.40;;;;;;5073073;28;20317;-67
2021/08/15 00:34:41;;;;;;;;;;;14.50;93.90;;;;;;5072918;28;20382;-66
2021/08/15 00:37:07;;;;;;;;;;;14.60;93.70;;;;;;5072266;28;19908;-65
2021/08/15 00:39:34;;;;;;;;;;;14.60;93.90;;;;;;5072673;28;19909;-65
2021/08/15 00:42:00;;;;;;;;;;;14.70;92.70;;;;;;5072483;28;19909;-66
2021/08/15 00:44:27;;;;;;;;;;;14.70;92.50;;;;;;5072920;28;20256;-65
2021/08/15 00:46:54;;;;;;;;;;;14.70;92.90;;;;;;5072875;28;19921;-66
2021/08/15 00:49:21;;;;;;;;;;;14.80;92.10;;;;;;5072589;28;19912;-66
2021/08/15 00:51:48;;;;;;;;;;;14.80;91.80;;;;;;5072479;28;20275;-66
2021/08/15 00:54:15;;;;;;;;;;;14.80;91.60;;;;;;5072684;28;19912;-65
2021/08/15 00:56:42;;;;;;;;;;;14.90;91.10;;;;;;5072689;28;20417;-66
2021/08/15 00:59:09;;;;;;;;;;;15.00;91.00;;;;;;5072667;28;19908;-66
2021/08/15 01:01:36;;;;;;;;;;;15.10;88.30;;;;;;5072368;28;19952;-65
2021/08/15 01:04:04;;;;;;;;;;;15.20;87.20;;;;;;5072507;28;19966;-65
2021/08/15 01:06:34;;;;;;;;;;;15.40;89.00;;;;;;5072576;28;19908;-65
2021/08/15 01:09:04;;;;;;;;;;;15.40;87.30;;;;;;5072854;28;19915;-66
2021/08/15 01:11:31;;;;;;;;;;;15.70;85.80;;;;;;5072577;28;19908;-65
2021/08/15 01:13:58;;;;;;;;;;;16.00;84.50;;;;;;5072500;28;19908;-67
2021/08/15 01:16:25;;;;;;;;;;;16.30;81.10;;;;;;5072306;28;19923;-66
2021/08/15 01:18:51;;;;;;;;;;;16.80;80.50;;;;;;5072383;28;19909;-66
2021/08/15 01:21:19;;;;;;;;;;;16.90;80.60;;;;;;5072192;28;19909;-65
2021/08/15 01:23:46;;;;;;;;;;;17.00;79.10;;;;;;5071800;28;19951;-66
2021/08/15 01:26:13;;;;;;;;;;;17.10;76.10;;;;;;5072410;28;19913;-66
2021/08/15 01:28:40;;;;;;;;;;;17.20;75.40;;;;;;5072309;28;19909;-66
2021/08/15 01:31:07;;;;;;;;;;;17.30;73.50;;;;;;5072217;28;19909;-65
2021/08/15 01:33:35;;;;;;;;;;;17.70;72.50;;;;;;5071946;28;19916;-65
2021/08/15 01:36:03;;;;;;;;;;;17.50;73.60;;;;;;5072234;28;19920;-66
2021/08/15 01:38:31;;;;;;;;;;;17.10;75.20;;;;;;5072121;28;19915;-65
2021/08/15 01:40:58;;;;;;;;;;;17.00;76.30;;;;;;5072150;28;19908;-65
2021/08/15 01:43:25;;;;;;;;;;;16.90;74.90;;;;;;5072292;28;19995;-66
2021/08/15 01:45:52;;;;;;;;;;;16.70;74.10;;;;;;5071869;28;19954;-65
2021/08/15 01:48:19;;;;;;;;;;;16.60;74.70;;;;;;5074448;28;19913;-65
2021/08/15 01:50:46;;;;;;;;;;;16.70;74.90;;;;;;5076266;28;20366;-67
2021/08/15 01:53:14;;;;;;;;;;;16.70;74.70;;;;;;5076174;28;19927;-65
2021/08/15 01:55:42;;;;;;;;;;;16.70;74.00;;;;;;5086470;28;19920;-65
2021/08/15 01:58:10;;;;;;;;;;;16.60;74.60;;;;;;5096564;28;19912;-65
2021/08/15 02:00:40;;;;;;;;;;;16.70;75.60;;;;;;5096287;28;20335;-67
2021/08/15 02:03:07;;;;;;;;;;;16.70;74.70;;;;;;5079948;28;19913;-65
2021/08/15 02:05:34;;;;;;;;;;;16.70;74.10;;;;;;5075460;28;19908;-66
2021/08/15 02:08:01;;;;;;;;;;;16.70;72.20;;;;;;5075737;28;20027;-67
2021/08/15 02:10:28;;;;;;;;;;;16.60;69.20;;;;;;5075747;28;19908;-65
2021/08/15 02:12:56;;;;;;;;;;;16.70;71.00;;;;;;5074838;28;19908;-65
2021/08/15 02:15:23;;;;;;;;;;;16.80;67.00;;;;;;5075299;28;19924;-65
2021/08/15 02:17:49;;;;;;;;;;;16.80;62.60;;;;;;5075151;28;19916;-65
2021/08/15 02:20:17;;;;;;;;;;;16.90;61.20;;;;;;5075376;28;19920;-66
2021/08/15 02:22:44;;;;;;;;;;;16.90;62.10;;;;;;5075132;28;19915;-65
2021/08/15 02:25:12;;;;;;;;;;;16.90;63.70;;;;;;5075630;28;19940;-66
2021/08/15 02:27:40;;;;;;;;;;;16.90;64.10;;;;;;5074895;28;19909;-65
2021/08/15 02:30:08;;;;;;;;;;;16.90;63.70;;;;;;5075551;28;19916;-66
2021/08/15 02:32:35;;;;;;;;;;;16.90;65.40;;;;;;5075392;28;19916;-66
2021/08/15 02:35:03;;;;;;;;;;;17.00;67.30;;;;;;5075332;28;19956;-68
2021/08/15 02:37:31;;;;;;;;;;;17.00;65.40;;;;;;5075478;28;19915;-67
2021/08/15 02:40:01;;;;;;;;;;;17.00;65.00;;;;;;5075416;28;19912;-66
2021/08/15 02:42:32;;;;;;;;;;;17.00;65.10;;;;;;5075289;28;20351;-66
2021/08/15 02:44:59;;;;;;;;;;;17.00;64.40;;;;;;5075174;28;19962;-67
2021/08/15 02:47:26;;;;;;;;;;;16.90;64.80;;;;;;5075033;28;19956;-66
2021/08/15 02:49:53;;;;;;;;;;;17.00;65.00;;;;;;5074860;28;19913;-67
2021/08/15 02:52:19;;;;;;;;;;;16.90;66.40;;;;;;5075180;28;19908;-67
2021/08/15 02:54:46;;;;;;;;;;;16.90;64.90;;;;;;5075149;28;19915;-66
2021/08/15 02:57:13;;;;;;;;;;;17.00;64.20;;;;;;5075226;28;19918;-67
2021/08/15 02:59:39;;;;;;;;;;;17.00;63.60;;;;;;5074086;28;19908;-66
2021/08/15 03:02:10;;;;;;;;;;;17.10;62.20;;;;;;5074623;28;19947;-66
2021/08/15 03:04:37;;;;;;;;;;;17.20;62.90;;;;;;5074844;28;19909;-66
2021/08/15 03:07:04;;;;;;;;;;;17.30;63.90;;;;;;5074917;28;19908;-65
2021/08/15 03:09:31;;;;;;;;;;;17.30;63.60;;;;;;5074592;28;19908;-67
2021/08/15 03:11:58;;;;;;;;;;;17.30;62.00;;;;;;5074854;28;20363;-66
2021/08/15 03:14:25;;;;;;;;;;;17.20;61.80;;;;;;5074823;28;19908;-67
2021/08/15 03:16:51;;;;;;;;;;;17.20;61.30;;;;;;5074759;28;20292;-67
2021/08/15 03:19:18;;;;;;;;;;;17.10;62.40;;;;;;5074760;28;19915;-67
2021/08/15 03:21:45;;;;;;;;;;;17.20;62.20;;;;;;5074583;28;19962;-66
2021/08/15 03:24:11;;;;;;;;;;;17.20;63.10;;;;;;5074412;28;19979;-65
2021/08/15 03:26:41;;;;;;;;;;;17.30;62.20;;;;;;5073285;28;19915;-67
2021/08/15 03:29:07;;;;;;;;;;;17.30;61.80;;;;;;5074409;28;19915;-67
2021/08/15 03:31:34;;;;;;;;;;;17.20;61.30;;;;;;5074207;28;19908;-65
2021/08/15 03:34:01;;;;;;;;;;;17.20;61.20;;;;;;5074292;28;19909;-65
2021/08/15 03:36:27;;;;;;;;;;;17.20;61.90;;;;;;5074224;28;19985;-65
2021/08/15 03:38:54;;;;;;;;;;;17.30;60.60;;;;;;5074294;28;19934;-65
2021/08/15 03:41:21;;;;;;;;;;;17.30;60.70;;;;;;5090018;28;20322;-64
2021/08/15 03:43:48;;;;;;;;;;;17.40;59.50;;;;;;5074061;28;19954;-65
2021/08/15 03:46:14;;;;;;;;;;;17.50;58.80;;;;;;5074065;28;19966;-63
2021/08/15 03:48:41;;;;;;;;;;;17.60;58.30;;;;;;5074143;28;19915;-65
2021/08/15 03:51:08;;;;;;;;;;;17.60;58.70;;;;;;5073969;28;19908;-65
2021/08/15 03:53:34;;;;;;;;;;;17.60;59.00;;;;;;5073820;28;20313;-65
2021/08/15 03:56:01;;;;;;;;;;;17.70;57.50;;;;;;5074112;28;19920;-65
2021/08/15 03:58:31;;;;;;;;;;;17.60;56.70;;;;;;5074044;28;19909;-65
2021/08/15 04:00:57;;;;;;;;;;;17.70;57.40;;;;;;5073933;28;20000;-65
2021/08/15 04:03:24;;;;;;;;;;;17.80;57.40;;;;;;5073541;28;19991;-65
2021/08/15 04:05:55;;;;;;;;;;;17.80;58.10;;;;;;5073474;28;19916;-65
2021/08/15 04:08:22;;;;;;;;;;;17.70;58.00;;;;;;5071441;28;19912;-65
2021/08/15 04:10:48;;;;;;;;;;;17.70;58.20;;;;;;5070559;28;19909;-65
2021/08/15 04:13:15;;;;;;;;;;;17.60;58.50;;;;;;5071217;28;19961;-65
2021/08/15 04:15:42;;;;;;;;;;;17.60;58.90;;;;;;5070986;28;20363;-67
2021/08/15 04:18:08;;;;;;;;;;;17.70;58.90;;;;;;5071176;28;19912;-65
2021/08/15 04:20:35;;;;;;;;;;;17.60;59.00;;;;;;5071048;28;19913;-65
2021/08/15 04:23:02;;;;;;;;;;;17.60;59.00;;;;;;5071482;28;20351;-65
2021/08/15 04:25:29;;;;;;;;;;;17.50;59.20;;;;;;5071391;28;19915;-65
2021/08/15 04:27:55;;;;;;;;;;;17.50;58.80;;;;;;5070677;28;19908;-65
2021/08/15 04:30:22;;;;;;;;;;;17.50;59.20;;;;;;5071022;28;19951;-65
2021/08/15 04:32:49;;;;;;;;;;;17.50;58.80;;;;;;5071396;28;19908;-65
2021/08/15 04:35:15;;;;;;;;;;;17.40;60.10;;;;;;5070652;28;19916;-65
2021/08/15 04:37:42;;;;;;;;;;;17.40;60.30;;;;;;5070811;28;20286;-66
2021/08/15 04:40:09;;;;;;;;;;;17.40;60.00;;;;;;5070725;28;19934;-65
2021/08/15 04:42:36;;;;;;;;;;;17.50;59.40;;;;;;5070622;28;20294;-65
2021/08/15 04:45:03;;;;;;;;;;;17.50;60.20;;;;;;5071406;28;19999;-65
2021/08/15 04:47:29;;;;;;;;;;;17.50;59.80;;;;;;5069943;28;19924;-65
2021/08/15 04:49:56;;;;;;;;;;;17.60;58.50;;;;;;5070685;28;19915;-65
2021/08/15 04:52:23;;;;;;;;;;;17.80;58.50;;;;;;5070678;28;19912;-65
2021/08/15 04:54:50;;;;;;;;;;;17.80;58.90;;;;;;5070438;28;20271;-65
2021/08/15 04:57:16;;;;;;;;;;;17.70;59.10;;;;;;5070121;28;19968;-65
2021/08/15 04:59:43;;;;;;;;;;;17.60;59.10;;;;;;5070101;28;19916;-65
2021/08/15 05:02:10;;;;;;;;;;;17.60;59.90;;;;;;5070458;28;19918;-65
2021/08/15 05:04:36;;;;;;;;;;;17.60;59.50;;;;;;5070800;28;19912;-65
2021/08/15 05:07:03;;;;;;;;;;;17.50;59.80;;;;;;5070336;28;19920;-65
2021/08/15 05:09:30;;;;;;;;;;;17.60;58.80;;;;;;5070171;28;20008;-65
2021/08/15 05:11:57;;;;;;;;;;;17.70;59.50;;;;;;5069824;28;19915;-65
2021/08/15 05:14:23;;;;;;;;;;;17.70;59.90;;;;;;5069939;28;19915;-65
2021/08/15 05:16:50;;;;;;;;;;;17.70;59.50;;;;;;5070088;28;19923;-65
2021/08/15 05:19:16;;;;;;;;;;;17.70;60.00;;;;;;5070281;28;19935;-65
2021/08/15 05:21:43;;;;;;;;;;;17.80;58.80;;;;;;5070143;28;19912;-66
2021/08/15 05:24:10;;;;;;;;;;;17.80;59.00;;;;;;5069969;28;20006;-65
2021/08/15 05:26:36;;;;;;;;;;;18.00;59.40;;;;;;5069083;28;19946;-66
2021/08/15 05:29:03;;;;;;;;;;;17.90;60.00;;;;;;5069943;28;19912;-65
2021/08/15 05:31:30;;;;;;;;;;;17.80;59.60;;;;;;5069765;28;20419;-65
2021/08/15 05:33:56;;;;;;;;;;;17.80;59.80;;;;;;5069989;28;19961;-66
2021/08/15 05:36:24;;;;;;;;;;;17.80;59.70;;;;;;5069911;28;19927;-67
2021/08/15 05:38:50;;;;;;;;;;;17.90;59.90;;;;;;5069720;28;20000;-67
2021/08/15 05:41:17;;;;;;;;;;;17.90;59.30;;;;;;5069584;28;19919;-68
2021/08/15 05:43:44;;;;;;;;;;;18.00;58.80;;;;;;5069818;28;19995;-66
2021/08/15 05:46:10;;;;;;;;;;;17.90;59.50;;;;;;5069652;28;19959;-67
2021/08/15 05:48:37;;;;;;;;;;;17.90;60.30;;;;;;5070425;28;20346;-68
2021/08/15 05:51:05;;;;;;;;;;;17.90;59.40;;;;;;5069921;28;19955;-67
2021/08/15 05:53:32;;;;;;;;;;;17.90;60.20;;;;;;5069279;28;20367;-67
2021/08/15 05:55:58;;;;;;;;;;;17.80;59.90;;;;;;5069318;28;19920;-67
2021/08/15 05:58:25;;;;;;;;;;;17.80;60.00;;;;;;5069875;28;19985;-67
2021/08/15 06:00:52;;;;;;;;;;;17.70;60.00;;;;;;5069788;28;20367;-66
2021/08/15 06:03:18;;;;;;;;;;;17.50;59.80;;;;;;5052009;28;20355;-67
2021/08/15 06:05:45;;;;;;;;;;;17.40;60.50;;;;;;5069283;28;19909;-68
2021/08/15 06:08:13;;;;;;;;;;;17.40;60.90;;;;;;5070046;28;20011;-67
2021/08/15 06:10:40;;;;;;;;;;;17.60;60.10;;;;;;5069399;28;20318;-67
2021/08/15 06:13:09;;;;;;;;;;;17.60;60.10;;;;;;5069355;28;19909;-66
2021/08/15 06:15:35;;;;;;;;;;;17.60;60.90;;;;;;5069560;28;19917;-65
2021/08/15 06:18:02;;;;;;;;;;;17.60;60.40;;;;;;5069252;28;19918;-65
2021/08/15 06:20:29;;;;;;;;;;;17.60;60.40;;;;;;5069947;28;19912;-65
2021/08/15 06:22:56;;;;;;;;;;;17.50;61.40;;;;;;5069815;28;19912;-65
2021/08/15 06:25:22;;;;;;;;;;;17.50;60.50;;;;;;5069691;28;20399;-65
2021/08/15 06:27:49;;;;;;;;;;;17.40;60.30;;;;;;5069525;28;20268;-65
2021/08/15 06:30:17;;;;;;;;;;;17.20;60.90;;;;;;5069675;28;19908;-65
2021/08/15 06:32:48;;;;;;;;;;;17.20;61.10;;;;;;5069181;28;20011;-65
2021/08/15 06:35:15;;;;;;;;;;;17.30;60.80;;;;;;5071576;28;19962;-65
2021/08/15 06:37:42;;;;;;;;;;;17.40;61.20;;;;;;5072983;28;20388;-66
2021/08/15 06:40:09;;;;;;;;;;;17.40;60.80;;;;;;5073169;28;19913;-65
2021/08/15 06:42:36;;;;;;;;;;;17.50;61.30;;;;;;5073019;28;19966;-65
2021/08/15 06:45:02;;;;;;;;;;;17.50;61.80;;;;;;5072877;28;20304;-68
2021/08/15 06:47:29;;;;;;;;;;;17.40;61.30;;;;;;5073168;28;19932;-65
2021/08/15 06:49:57;;;;;;;;;;;17.30;61.20;;;;;;5072949;28;19909;-65
2021/08/15 06:52:23;;;;;;;;;;;17.40;61.50;;;;;;5073056;28;20331;-65
2021/08/15 06:54:50;;;;;;;;;;;17.30;61.80;;;;;;5072892;28;19952;-66
2021/08/15 06:57:17;;;;;;;;;;;17.20;62.00;;;;;;5072903;28;19917;-65
2021/08/15 06:59:44;;;;;;;;;;;17.20;61.20;;;;;;5072700;28;20355;-65
2021/08/15 07:02:10;;;;;;;;;;;17.30;61.60;;;;;;5072773;28;20341;-65
2021/08/15 07:04:37;;;;;;;;;;;17.30;62.10;;;;;;5072858;28;19909;-65
2021/08/15 07:07:04;;;;;;;;;;;17.10;62.70;;;;;;5072790;28;20011;-65
2021/08/15 07:09:30;;;;;;;;;;;16.90;63.60;;;;;;5072712;28;19977;-65
2021/08/15 07:11:57;;;;;;;;;;;16.80;64.30;;;;;;5072249;28;19935;-65
2021/08/15 07:14:23;;;;;;;;;;;16.60;64.80;;;;;;5071944;28;19912;-65
2021/08/15 07:16:50;;;;;;;;;;;16.50;65.10;;;;;;5072242;28;19977;-65
2021/08/15 07:19:17;;;;;;;;;;;16.30;65.60;;;;;;5072502;28;19916;-65
2021/08/15 07:21:43;;;;;;;;;;;16.20;65.80;;;;;;5072164;28;19909;-66
2021/08/15 07:24:10;;;;;;;;;;;16.10;66.10;;;;;;5072343;28;20041;-66
2021/08/15 07:26:37;;;;;;;;;;;16.10;66.50;;;;;;5071804;28;19969;-66
2021/08/15 07:29:03;;;;;;;;;;;16.00;66.10;;;;;;5072130;28;20303;-65
2021/08/15 07:31:30;;;;;;;;;;;16.10;66.20;;;;;;5071953;28;19912;-66
2021/08/15 07:33:56;;;;;;;;;;;16.10;65.50;;;;;;5072760;28;19909;-65
2021/08/15 07:36:24;;;;;;;;;;;16.20;65.80;;;;;;5071979;28;19920;-65
2021/08/15 07:38:51;;;;;;;;;;;16.20;65.50;;;;;;5072114;28;19915;-65
2021/08/15 07:41:17;;;;;;;;;;;16.10;65.70;;;;;;5071487;28;19912;-65
2021/08/15 07:43:44;;;;;;;;;;;16.00;65.60;;;;;;5072012;28;20425;-65
2021/08/15 07:46:13;;;;;;;;;;;15.90;66.00;;;;;;5071709;28;19921;-65
2021/08/15 07:48:43;;;;;;;;;;;15.80;66.30;;;;;;5071821;28;20111;-65
2021/08/15 07:51:10;;;;;;;;;;;15.80;66.70;;;;;;5072285;28;19918;-65
2021/08/15 07:53:37;;;;;;;;;;;15.70;67.10;;;;;;5071553;28;19913;-65
2021/08/15 07:56:04;;;;;;;;;;;15.60;67.00;;;;;;5071093;28;19920;-65
2021/08/15 07:58:31;;;;;;;;;;;15.60;67.30;;;;;;5071669;28;19917;-66
2021/08/15 08:00:58;;;;;;;;;;;15.60;67.30;;;;;;5071516;28;20081;-67
2021/08/15 08:03:25;;;;;;;;;;;15.60;66.80;;;;;;5071679;28;20294;-65
2021/08/15 08:05:51;;;;;;;;;;;15.60;67.00;;;;;;5071486;28;19944;-65
2021/08/15 08:08:18;;;;;;;;;;;15.50;67.00;;;;;;5071229;28;19935;-66
2021/08/15 08:10:47;;;;;;;;;;;15.50;67.40;;;;;;5071024;28;19915;-66
2021/08/15 08:13:13;;;;;;;;;;;15.50;67.90;;;;;;5071775;28;19909;-65
2021/08/15 08:15:40;;;;;;;;;;;15.40;68.10;;;;;;5071676;28;19920;-65
2021/08/15 08:18:07;;;;;;;;;;;15.40;68.00;;;;;;5071447;28;19920;-65
2021/08/15 08:20:37;;;;;;;;;;;15.40;67.90;;;;;;5071297;28;19965;-66
2021/08/15 08:23:04;;;;;;;;;;;15.40;68.20;;;;;;5071272;28;20209;-65
2021/08/15 08:25:31;;;;;;;;;;;15.40;67.70;;;;;;5070636;28;19913;-67
2021/08/15 08:27:58;;;;;;;;;;;15.50;66.80;;;;;;5071221;28;19943;-68
2021/08/15 08:30:25;;;;;;;;;;;15.70;66.00;;;;;;5070919;28;19932;-67
2021/08/15 08:32:51;;;;;;;;;;;15.90;65.50;;;;;;5070965;28;20276;-65
2021/08/15 08:35:18;;;;;;;;;;;16.00;65.20;;;;;;5070982;28;20424;-65
2021/08/15 08:37:46;;;;;;;;;;;16.10;65.80;;;;;;5071045;28;19908;-67
2021/08/15 08:40:14;;;;;;;;;;;16.10;65.30;;;;;;5070958;28;20379;-67
2021/08/15 08:42:42;;;;;;;;;;;16.10;66.10;;;;;;5085952;28;20287;-67
2021/08/15 08:45:09;;;;;;;;;;;16.00;66.50;;;;;;5071282;28;20359;-67
2021/08/15 08:47:36;;;;;;;;;;;16.00;66.60;;;;;;5070315;28;19928;-67
2021/08/15 08:50:03;;;;;;;;;;;16.00;67.20;;;;;;5070812;28;20374;-66
2021/08/15 08:52:30;;;;;;;;;;;16.00;67.20;;;;;;5070789;28;19909;-67
2021/08/15 08:55:01;;;;;;;;;;;15.90;68.00;;;;;;5070488;28;19915;-67
2021/08/15 08:57:28;;;;;;;;;;;15.80;68.10;;;;;;5069504;28;19908;-69
2021/08/15 08:59:55;;;;;;;;;;;15.80;68.60;;;;;;5070317;28;19909;-67
2021/08/15 09:02:21;;;;;;;;;;;15.70;68.70;;;;;;5070803;28;20287;-65
2021/08/15 09:04:48;;;;;;;;;;;15.60;68.40;;;;;;5070799;28;19915;-65
2021/08/15 09:07:17;;;;;;;;;;;15.60;69.00;;;;;;5070605;28;20275;-65
2021/08/15 09:09:54;;;;;;;;;;;15.50;68.70;;;;;;5070675;28;20424;-65
2021/08/15 09:12:21;;;;;;;;;;;15.40;69.30;;;;;;5069752;28;19908;-65
2021/08/15 09:15:05;;;;;;;;;;;15.40;69.50;;;;;;5070204;28;19962;-65
2021/08/15 09:17:35;;;;;;;;;;;15.30;69.70;;;;;;5070319;28;19909;-65
2021/08/15 09:20:02;;;;;;;;;;;15.30;69.90;;;;;;5070450;28;19919;-65
2021/08/15 09:22:30;;;;;;;;;;;15.20;68.80;;;;;;5070363;28;19912;-65
2021/08/15 09:24:57;;;;;;;;;;;15.20;70.00;;;;;;5069614;28;20348;-65
2021/08/15 09:27:27;;;;;;;;;;;15.20;69.90;;;;;;5070611;28;20363;-65
2021/08/15 09:30:07;;;;;;;;;;;15.10;69.70;;;;;;5070261;28;19966;-65
2021/08/15 09:32:34;;;;;;;;;;;15.10;69.40;;;;;;5070390;28;19916;-65
2021/08/15 09:35:02;;;;;;;;;;;15.10;69.50;;;;;;5070315;28;19912;-65
2021/08/15 09:37:30;;;;;;;;;;;15.10;70.40;;;;;;5070210;28;20003;-64
2021/08/15 09:39:56;;;;;;;;;;;15.00;69.20;;;;;;5084861;28;20012;-65
2021/08/15 09:42:41;;;;;;;;;;;15.10;68.70;;;;;;5070238;28;20378;-64
2021/08/15 09:45:12;;;;;;;;;;;15.20;68.50;;;;;;5070183;28;19931;-64
2021/08/15 09:47:38;;;;;;;;;;;15.10;68.80;;;;;;5069654;28;20438;-64
2021/08/15 09:50:18;;;;;;;;;;;15.10;70.00;;;;;;5069951;28;19939;-65
2021/08/15 09:52:45;;;;;;;;;;;15.10;70.10;;;;;;5069790;28;20007;-64
2021/08/15 09:55:12;;;;;;;;;;;15.00;70.60;;;;;;5069470;28;19921;-65
2021/08/15 09:57:40;;;;;;;;;;;14.90;70.50;;;;;;5069808;28;19925;-63
2021/08/15 10:00:26;;;;;;;;;;;14.80;70.70;;;;;;5069814;28;19912;-64
2021/08/15 10:02:54;;;;;;;;;;;14.80;71.50;;;;;;5070040;28;19920;-64
2021/08/15 10:05:21;;;;;;;;;;;14.80;71.80;;;;;;5069439;28;19908;-68
2021/08/15 10:07:48;;;;;;;;;;;14.80;70.50;;;;;;5069728;28;20370;-63
2021/08/15 10:10:17;;;;;;;;;;;14.90;70.20;;;;;;5071730;28;20348;-64
2021/08/15 10:12:44;;;;;;;;;;;14.90;69.50;;;;;;5073955;28;20168;-65
2021/08/15 10:15:11;;;;;;;;;;;14.90;70.30;;;;;;5073713;28;20437;-66
2021/08/15 10:17:38;;;;;;;;;;;14.90;68.90;;;;;;5073394;28;20369;-66
2021/08/15 10:20:08;;;;;;;;;;;15.00;67.70;;;;;;5074032;28;19908;-65
2021/08/15 10:22:35;;;;;;;;;;;15.00;68.20;;;;;;5073765;28;19909;-65
2021/08/15 10:25:04;;;;;;;;;;;15.10;68.90;;;;;;5073550;28;19912;-66
2021/08/15 10:27:50;;;;;;;;;;;15.10;68.30;;;;;;5073474;28;19912;-65
2021/08/15 10:30:20;;;;;;;;;;;15.20;67.80;;;;;;5073103;28;20120;-66
2021/08/15 10:32:55;;;;;;;;;;;15.20;68.40;;;;;;5073464;28;19915;-66
2021/08/15 10:35:22;;;;;;;;;;;15.20;68.20;;;;;;5073352;28;19921;-66
2021/08/15 10:37:52;;;;;;;;;;;15.10;68.00;;;;;;5073173;28;19912;-66
2021/08/15 10:40:37;;;;;;;;;;;15.10;67.70;;;;;;5072675;28;19919;-66
2021/08/15 10:43:04;;;;;;;;;;;15.10;69.40;;;;;;5073432;28;20007;-65
2021/08/15 10:45:31;;;;;;;;;;;15.00;68.40;;;;;;5072448;28;20409;-65
2021/08/15 10:48:10;;;;;;;;;;;15.00;68.60;;;;;;5073006;28;20015;-66
2021/08/15 10:50:44;;;;;;;;;;;15.00;69.90;;;;;;5073538;28;19912;-67
2021/08/15 10:53:29;;;;;;;;;;;14.90;69.80;;;;;;5073306;28;19915;-65
2021/08/15 10:56:03;;;;;;;;;;;15.00;71.00;;;;;;5072585;28;19923;-65
2021/08/15 10:58:40;;;;;;;;;;;14.90;69.60;;;;;;5072960;28;20248;-66
2021/08/15 11:01:10;;;;;;;;;;;15.00;68.40;;;;;;5072899;28;20461;-68
2021/08/15 11:03:40;;;;;;;;;;;15.00;68.70;;;;;;5072704;28;19920;-68
2021/08/15 11:06:27;;;;;;;;;;;14.90;70.00;;;;;;5072683;28;19913;-67
2021/08/15 11:08:54;;;;;;;;;;;14.90;68.90;;;;;;5072131;28;19908;-67
2021/08/15 11:11:27;;;;;;;;;;;14.90;68.30;;;;;;5072506;28;20363;-66
2021/08/15 11:14:12;;;;;;;;;;;14.90;67.90;;;;;;5072591;28;20422;-66
2021/08/15 11:16:38;;;;;;;;;;;14.80;68.30;;;;;;5072672;28;19970;-67
2021/08/15 11:19:08;;;;;;;;;;;14.80;68.30;;;;;;5072618;28;20438;-68
2021/08/15 11:21:53;;;;;;;;;;;14.80;67.70;;;;;;5072146;28;19958;-68
2021/08/15 11:24:22;;;;;;;;;;;14.80;68.60;;;;;;5071751;28;19913;-68
2021/08/15 11:26:49;;;;;;;;;;;14.70;68.20;;;;;;5072631;28;20296;-67
2021/08/15 11:29:19;;;;;;;;;;;14.70;68.20;;;;;;5072393;28;19916;-68
2021/08/15 11:31:48;;;;;;;;;;;14.70;68.60;;;;;;5072413;28;19913;-68
2021/08/15 11:34:14;;;;;;;;;;;14.60;68.80;;;;;;5072587;28;19908;-68
2021/08/15 11:36:41;;;;;;;;;;;14.40;69.50;;;;;;5071980;28;20007;-67
2021/08/15 11:39:08;;;;;;;;;;;14.30;69.70;;;;;;5072116;28;19916;-67
2021/08/15 11:41:35;;;;;;;;;;;14.30;71.30;;;;;;5072294;28;19912;-68
2021/08/15 11:44:02;;;;;;;;;;;14.30;71.70;;;;;;5072377;28;19912;-67
2021/08/15 11:46:29;;;;;;;;;;;14.10;70.80;;;;;;5073370;28;19971;-66
2021/08/15 11:48:56;;;;;;;;;;;14.10;72.10;;;;;;5081773;28;19913;-65
2021/08/15 11:51:22;;;;;;;;;;;14.10;72.70;;;;;;5072244;28;19909;-66
2021/08/15 11:53:49;;;;;;;;;;;14.10;71.70;;;;;;5071401;28;19908;-65
2021/08/15 11:56:21;;;;;;;;;;;14.10;72.30;;;;;;5071889;28;19916;-66
2021/08/15 11:58:55;;;;;;;;;;;14.10;72.20;;;;;;5071946;28;19951;-66
2021/08/15 12:01:24;;;;;;;;;;;14.10;72.00;;;;;;5072225;28;19919;-65
2021/08/15 12:03:57;;;;;;;;;;;14.10;71.70;;;;;;5071362;28;20290;-65
2021/08/15 12:06:24;;;;;;;;;;;14.20;72.20;;;;;;5072120;28;19912;-65
2021/08/15 12:08:50;;;;;;;;;;;14.20;72.80;;;;;;5071429;28;20023;-65
2021/08/15 12:11:36;;;;;;;;;;;14.20;72.20;;;;;;5071470;28;19919;-65
2021/08/15 12:14:08;;;;;;;;;;;14.20;72.70;;;;;;5071493;28;19919;-66
2021/08/15 12:16:36;;;;;;;;;;;14.20;72.90;;;;;;5071424;28;20381;-65
2021/08/15 12:19:05;;;;;;;;;;;14.20;73.00;;;;;;5071539;28;19950;-66
2021/08/15 12:21:38;;;;;;;;;;;14.30;72.40;;;;;;5071212;28;19908;-66
2021/08/15 12:24:04;;;;;;;;;;;14.30;73.30;;;;;;5070765;28;19912;-65
2021/08/15 12:26:33;;;;;;;;;;;14.30;72.90;;;;;;5071416;28;19912;-66
2021/08/15 12:29:03;;;;;;;;;;;14.20;72.60;;;;;;5070719;28;20271;-66
2021/08/15 12:31:31;;;;;;;;;;;14.20;72.40;;;;;;5070821;28;19952;-66
2021/08/15 12:34:17;;;;;;;;;;;14.20;73.30;;;;;;5071018;28;19908;-66
2021/08/15 12:36:48;;;;;;;;;;;14.20;73.90;;;;;;5070873;28;20326;-66
2021/08/15 12:39:16;;;;;;;;;;;14.10;74.10;;;;;;5052525;28;20394;-66
2021/08/15 12:41:50;;;;;;;;;;;14.10;74.90;;;;;;5070655;28;19947;-66
2021/08/15 12:44:21;;;;;;;;;;;14.10;74.20;;;;;;5071066;28;19955;-66
2021/08/15 12:47:03;;;;;;;;;;;14.10;74.40;;;;;;5070824;28;19925;-66
2021/08/15 12:49:33;;;;;;;;;;;14.10;74.00;;;;;;5070777;28;20000;-66
2021/08/15 12:52:10;;;;;;;;;;;14.10;74.10;;;;;;5071128;28;20009;-66
2021/08/15 12:54:56;;;;;;;;;;;14.10;74.00;;;;;;5069824;28;19912;-65
2021/08/15 12:57:23;;;;;;;;;;;14.10;75.60;;;;;;5070635;28;20127;-66
2021/08/15 12:59:49;;;;;;;;;;;14.00;76.10;;;;;;5070478;28;19909;-66
2021/08/15 13:02:16;;;;;;;;;;;14.00;74.40;;;;;;5070712;28;19912;-66
2021/08/15 13:04:42;;;;;;;;;;;14.00;75.10;;;;;;5070654;28;19913;-66
2021/08/15 13:07:09;;;;;;;;;;;14.00;76.00;;;;;;5070345;28;20292;-66
2021/08/15 13:09:36;;;;;;;;;;;14.10;76.00;;;;;;5069772;28;20325;-66
2021/08/15 13:12:02;;;;;;;;;;;14.10;74.70;;;;;;5070483;28;20010;-65
2021/08/15 13:14:29;;;;;;;;;;;14.10;75.40;;;;;;5070500;28;19908;-66
2021/08/15 13:17:01;;;;;;;;;;;14.10;76.10;;;;;;5070511;28;20841;-66
2021/08/15 13:19:28;;;;;;;;;;;14.10;75.50;;;;;;5070552;28;20011;-66
2021/08/15 13:21:54;;;;;;;;;;;14.00;75.70;;;;;;5069792;28;20466;-65
2021/08/15 13:24:21;;;;;;;;;;;14.00;77.20;;;;;;5070479;28;19947;-66
2021/08/15 13:26:47;;;;;;;;;;;13.90;77.30;;;;;;5070503;28;20377;-65
2021/08/15 13:29:14;;;;;;;;;;;13.90;78.30;;;;;;5070201;28;20003;-65
2021/08/15 13:31:41;;;;;;;;;;;13.90;76.80;;;;;;5070325;28;19916;-67
2021/08/15 13:34:07;;;;;;;;;;;13.90;77.00;;;;;;5070195;28;19919;-66
2021/08/15 13:36:35;;;;;;;;;;;13.80;77.40;;;;;;5070338;28;19943;-66
2021/08/15 13:39:02;;;;;;;;;;;13.80;77.50;;;;;;5070270;28;19912;-66
2021/08/15 13:41:28;;;;;;;;;;;13.80;76.80;;;;;;5070223;28;20030;-66
2021/08/15 13:43:55;;;;;;;;;;;13.80;77.10;;;;;;5070033;28;19916;-68
2021/08/15 13:46:21;;;;;;;;;;;13.70;77.50;;;;;;5069837;28;20294;-66
2021/08/15 13:48:48;;;;;;;;;;;13.70;78.10;;;;;;5069994;28;19978;-67
2021/08/15 13:51:15;;;;;;;;;;;13.70;76.90;;;;;;5070050;28;19908;-66
2021/08/15 13:53:41;;;;;;;;;;;13.70;77.70;;;;;;5070219;28;19909;-67
2021/08/15 13:56:08;;;;;;;;;;;13.60;78.10;;;;;;5070154;28;20021;-67
2021/08/15 13:58:35;;;;;;;;;;;13.40;78.30;;;;;;5069972;28;19912;-67
2021/08/15 14:01:01;;;;;;;;;;;13.40;78.50;;;;;;5069641;28;20003;-67
2021/08/15 14:03:28;;;;;;;;;;;13.30;78.70;;;;;;5070056;28;19909;-67
2021/08/15 14:05:58;;;;;;;;;;;13.30;78.60;;;;;;5070040;28;19916;-68
2021/08/15 14:08:24;;;;;;;;;;;13.30;78.90;;;;;;5069938;28;19915;-66
2021/08/15 14:10:51;;;;;;;;;;;13.40;78.00;;;;;;5070088;28;20431;-67
2021/08/15 14:13:17;;;;;;;;;;;13.40;78.70;;;;;;5069527;28;19966;-67
2021/08/15 14:15:44;;;;;;;;;;;13.40;78.90;;;;;;5069891;28;20492;-67
2021/08/15 14:18:11;;;;;;;;;;;13.40;78.50;;;;;;5070100;28;19938;-67
2021/08/15 14:20:37;;;;;;;;;;;13.40;78.40;;;;;;5069972;28;19952;-66